Time;durP1;ratioP1;P1;durP2;ratioP2;P2;SDS_P1;SDS_P2;PMS_P1;PMS_P2;Temp;Humidity;BMP_temperature;BMP_pressure;BME280_temperature;BME280_humidity;BME280_pressure;Samples;Min_cycle;Max_cycle;Signal;HPM_P1;HPM_P2
2022/01/27 00:01:01;;;;;;;20.70;9.48;;;;;;;-5.27;100.00;99745.73;1736732;82;21050;-70
2022/01/27 00:03:43;;;;;;;21.02;9.30;;;;;;;-5.26;100.00;99752.70;1732906;81;21055;-70
2022/01/27 00:05:52;;;;;;;20.50;9.58;;;;;;;-5.26;100.00;99750.88;1731894;82;21018;-70
2022/01/27 00:08:21;;;;;;;24.00;10.85;;;;;;;-5.21;100.00;99749.05;1742317;82;21064;-70
2022/01/27 00:10:51;;;;;;;23.60;10.28;;;;;;;-5.18;100.00;99748.70;1741273;82;21043;-70
2022/01/27 00:13:19;;;;;;;23.25;10.53;;;;;;;-5.15;100.00;99742.55;1722194;82;21050;-70
2022/01/27 00:15:48;;;;;;;21.90;9.55;;;;;;;-5.10;100.00;99749.48;1742896;81;21011;-70
2022/01/27 00:18:20;;;;;;;20.00;9.08;;;;;;;-5.06;100.00;99748.16;1749436;81;21528;-70
2022/01/27 00:20:46;;;;;;;20.25;9.38;;;;;;;-5.06;100.00;99745.50;1740731;81;21078;-70
2022/01/27 00:23:13;;;;;;;18.17;8.88;;;;;;;-5.02;100.00;99752.62;1735838;81;21052;-70
2022/01/27 00:25:39;;;;;;;21.12;9.20;;;;;;;-4.99;100.00;99744.83;1743562;81;21046;-70
2022/01/27 00:28:07;;;;;;;23.38;9.63;;;;;;;-4.99;100.00;99737.67;1747097;81;21056;-70
2022/01/27 00:30:35;;;;;;;23.65;8.85;;;;;;;-4.97;100.00;99737.51;1746986;81;21521;-70
2022/01/27 00:35:32;;;;;;;21.90;8.35;;;;;;;-4.91;100.00;99730.17;1812634;77;23431;-65
2022/01/27 00:37:59;;;;;;;20.27;9.18;;;;;;;-4.98;100.00;99735.84;1774161;78;21063;-66
2022/01/27 00:40:26;;;;;;;22.25;9.43;;;;;;;-4.94;100.00;99730.52;1775550;78;21097;-65
2022/01/27 00:42:53;;;;;;;18.55;8.70;;;;;;;-4.92;100.00;99728.02;1818659;78;21600;-65
2022/01/27 00:45:19;;;;;;;;;;;;;;;-4.90;100.00;99722.55;1775579;78;21030;-65
2022/01/27 00:47:46;;;;;;;17.92;8.18;;;;;;;-4.88;100.00;99724.52;1771589;80;20141;-66
2022/01/27 00:50:16;;;;;;;16.95;7.42;;;;;;;-4.93;100.00;99726.87;1773895;78;20999;-65
2022/01/27 00:52:46;;;;;;;16.20;7.60;;;;;;;-4.93;100.00;99729.53;1773987;78;21026;-65
2022/01/27 00:55:11;;;;;;;14.38;6.42;;;;;;;-4.91;100.00;99728.34;1771690;80;21509;-65
2022/01/27 01:00:07;;;;;;;18.73;7.50;;;;;;;-4.85;100.00;99722.87;1779462;78;21042;-65
2022/01/27 01:02:45;;;;;;;16.77;6.80;;;;;;;-4.82;100.00;99715.88;1780530;78;21011;-65
2022/01/27 01:07:55;;;;;;;;;;;;;;;-4.78;100.00;99717.98;1658230;84;21051;-65
2022/01/27 01:15:34;;;;;;;17.82;7.95;;;;;;;-4.72;100.00;99722.62;1673819;82;21039;-65
2022/01/27 01:18:07;;;;;;;17.25;8.15;;;;;;;-4.67;100.00;99726.06;1734966;82;21000;-64
2022/01/27 01:31:32;;;;;;;18.85;8.40;;;;;;;-4.53;100.00;99706.72;1725229;81;21641;-64
2022/01/27 01:34:12;;;;;;;15.50;7.20;;;;;;;-4.49;100.00;99701.38;1716838;81;21558;-65
2022/01/27 01:36:36;;;;;;;14.60;6.65;;;;;;;-4.46;100.00;99701.55;1708690;82;21136;-65
2022/01/27 01:38:55;;;;;;;11.57;5.45;;;;;;;-4.47;100.00;99700.72;1715440;82;21035;-65
2022/01/27 01:41:21;;;;;;;14.63;6.45;;;;;;;-4.48;100.00;99708.86;1719505;82;21052;-65
2022/01/27 01:43:48;;;;;;;14.43;6.85;;;;;;;-4.50;100.00;99705.56;1756547;79;21101;-65
2022/01/27 01:46:14;;;;;;;13.93;6.58;;;;;;;-4.50;100.00;99705.56;1769152;80;21031;-65
2022/01/27 01:48:41;;;;;;;16.60;7.90;;;;;;;-4.46;100.00;99704.21;1759677;79;21023;-64
2022/01/27 01:51:07;;;;;;;17.17;8.10;;;;;;;-4.43;100.00;99709.17;1769459;79;21138;-65
2022/01/27 01:53:34;;;;;;;15.00;6.42;;;;;;;-4.40;100.00;99704.33;1713671;82;21074;-65
2022/01/27 01:56:00;;;;;;;15.63;7.00;;;;;;;-4.36;100.00;99702.97;1722633;82;21077;-65
2022/01/27 01:58:27;;;;;;;16.07;6.55;;;;;;;-4.33;100.00;99709.76;1694359;83;21092;-65
2022/01/27 02:00:53;;;;;;;11.15;5.33;;;;;;;-4.33;100.00;99711.09;1705368;82;21071;-64
2022/01/27 02:03:20;;;;;;;;;;;;;;;-4.33;100.00;99701.29;1717616;82;21489;-65
2022/01/27 02:05:51;;;;;;;11.45;5.17;;;;;;;-4.33;100.00;99694.64;1703398;82;20161;-65
2022/01/27 02:19:15;;;;;;;13.38;5.03;;;;;;;-4.35;100.00;99682.02;1738536;82;20927;-65
2022/01/27 02:21:59;;;;;;;11.12;5.65;;;;;;;-4.32;100.00;99680.33;1727308;82;21604;-65
2022/01/27 02:24:29;;;;;;;14.63;5.17;;;;;;;-4.29;100.00;99675.18;1719751;82;20973;-65
2022/01/27 02:26:56;;;;;;;11.68;5.22;;;;;;;-4.26;100.00;99684.95;1738464;82;21050;-65
2022/01/27 02:29:23;;;;;;;11.08;4.97;;;;;;;-4.25;100.00;99683.93;1723738;82;21042;-65
2022/01/27 02:31:53;;;;;;;14.25;5.37;;;;;;;-4.25;100.00;99687.11;1720564;82;21113;-65
2022/01/27 02:34:19;;;;;;;14.85;6.15;;;;;;;-4.23;100.00;99677.12;1732048;82;21534;-65
2022/01/27 02:36:46;;;;;;;16.87;5.72;;;;;;;-4.24;100.00;99669.64;1701886;83;21097;-65
2022/01/27 02:39:13;;;;;;;11.95;5.37;;;;;;;-4.24;100.00;99667.48;1705414;83;21360;-65
2022/01/27 02:41:52;;;;;;;14.25;5.22;;;;;;;-4.22;100.00;99672.14;1699052;83;21063;-65
2022/01/27 02:44:48;;;;;;;13.98;6.60;;;;;;;-4.25;100.00;99672.50;1707637;83;20987;-65
2022/01/27 02:47:16;;;;;;;12.73;5.87;;;;;;;-4.28;100.00;99673.66;1697188;83;21110;-64
2022/01/27 02:49:43;;;;;;;13.30;6.55;;;;;;;-4.32;100.00;99663.05;1714321;83;21059;-64
2022/01/27 02:52:10;;;;;;;14.15;6.53;;;;;;;-4.39;100.00;99667.43;1708942;83;21039;-64
2022/01/27 02:54:37;;;;;;;14.93;6.17;;;;;;;-4.39;100.00;99661.31;1695573;83;21063;-64
2022/01/27 02:57:04;;;;;;;12.18;5.45;;;;;;;-4.40;100.00;99658.32;1703643;83;21074;-64
2022/01/27 02:59:30;;;;;;;;;;;;;;;-4.47;100.00;99650.24;1704778;83;21564;-64
2022/01/27 03:01:57;;;;;;;13.40;5.47;;;;;;;-4.50;100.00;99656.41;1690854;83;20465;-64
2022/01/27 03:04:24;;;;;;;16.25;5.55;;;;;;;-4.64;100.00;99649.51;1712093;83;21541;-64
2022/01/27 03:06:50;;;;;;;10.85;4.45;;;;;;;-4.71;100.00;99656.53;1712415;83;21559;-64
2022/01/27 03:09:17;;;;;;;9.53;4.30;;;;;;;-4.75;100.00;99655.75;1697213;83;21546;-64
2022/01/27 03:11:58;;;;;;;12.95;5.05;;;;;;;-4.73;100.00;99660.38;1696215;83;21578;-64
2022/01/27 03:14:25;;;;;;;10.70;4.60;;;;;;;-4.72;100.00;99652.24;1690891;83;21530;-64
2022/01/27 03:16:58;;;;;;;8.85;4.53;;;;;;;-4.73;100.00;99649.25;1699600;83;21651;-64
2022/01/27 03:19:25;;;;;;;17.15;6.00;;;;;;;-4.76;100.00;99642.97;1712474;83;20991;-64
2022/01/27 03:21:53;;;;;;;7.97;4.37;;;;;;;-4.79;100.00;99649.13;1712828;83;21062;-65
2022/01/27 03:24:24;;;;;;;10.28;4.55;;;;;;;-4.83;100.00;99650.48;1695934;83;20980;-64
2022/01/27 03:26:52;;;;;;;12.18;4.85;;;;;;;-4.85;100.00;99644.00;1714426;83;21187;-64
2022/01/27 03:29:19;;;;;;;11.33;4.65;;;;;;;-4.89;100.00;99642.73;1712215;83;21561;-64
2022/01/27 03:31:46;;;;;;;10.32;4.37;;;;;;;-4.94;100.00;99639.76;1712542;83;21087;-64
2022/01/27 03:34:15;;;;;;;10.68;3.80;;;;;;;-5.03;100.00;99633.66;1697085;83;21132;-64
2022/01/27 03:36:41;;;;;;;10.80;4.10;;;;;;;-5.11;100.00;99630.23;1732024;82;21018;-64
2022/01/27 03:39:08;;;;;;;11.33;3.87;;;;;;;-5.17;100.00;99624.30;1745311;82;21010;-64
2022/01/27 03:41:38;;;;;;;7.17;3.37;;;;;;;-5.21;100.00;99613.18;1719205;82;21057;-64
2022/01/27 03:44:05;;;;;;;10.35;3.30;;;;;;;-5.30;100.00;99617.38;1725812;82;21430;-64
2022/01/27 03:46:32;;;;;;;9.90;3.65;;;;;;;-5.34;100.00;99618.73;1722701;82;21069;-64
2022/01/27 03:48:58;;;;;;;11.70;3.70;;;;;;;-5.42;100.00;99612.16;1719309;82;20971;-64
2022/01/27 03:51:25;;;;;;;10.53;3.37;;;;;;;-5.47;100.00;99608.68;1723677;82;21144;-64
2022/01/27 03:53:51;;;;;;;8.20;3.40;;;;;;;-5.52;100.00;99607.03;1723352;82;21021;-64
2022/01/27 03:56:18;;;;;;;12.23;4.05;;;;;;;-5.57;100.00;99609.39;1738635;82;21014;-64
2022/01/27 03:58:44;;;;;;;7.42;3.10;;;;;;;-5.66;100.00;99604.61;1745430;82;20991;-64
2022/01/27 04:01:11;;;;;;;6.85;3.70;;;;;;;-5.75;100.00;99596.36;1695618;83;21116;-64
2022/01/27 04:03:38;;;;;;;14.28;4.30;;;;;;;-5.81;100.00;99601.52;1728722;82;20997;-64
2022/01/27 04:06:09;;;;;;;11.95;4.28;;;;;;;-5.89;100.00;99585.67;1769049;79;21648;-64
2022/01/27 04:08:38;;;;;;;18.37;7.78;;;;;;;-5.94;100.00;99584.84;1773002;80;21423;-65
2022/01/27 04:11:05;;;;;;;16.20;7.05;;;;;;;-6.00;100.00;99579.40;1777677;79;21059;-65
2022/01/27 04:13:32;;;;;;;18.52;8.00;;;;;;;-6.05;100.00;99587.84;1774350;79;20986;-65
2022/01/27 04:15:58;;;;;;;;;;;;;;;-6.09;100.00;99582.55;1789144;79;21764;-65
2022/01/27 04:18:25;;;;;;;15.75;6.35;;;;;;;-6.12;100.00;99578.42;1782580;80;20088;-65
2022/01/27 04:20:51;;;;;;;13.43;5.85;;;;;;;-6.20;100.00;99582.94;1778357;79;21130;-64
2022/01/27 04:23:18;;;;;;;16.97;6.33;;;;;;;-6.26;100.00;99584.42;1769379;79;20990;-65
2022/01/27 04:25:46;;;;;;;14.15;6.55;;;;;;;-6.29;100.00;99579.95;1753920;80;21094;-65
2022/01/27 04:28:17;;;;;;;18.20;7.65;;;;;;;-6.36;100.00;99579.80;1770226;80;20999;-64
2022/01/27 04:30:41;;;;;;;17.95;7.37;;;;;;;-6.44;100.00;99577.16;1757457;79;21145;-65
2022/01/27 04:33:08;;;;;;;16.67;6.92;;;;;;;-6.48;100.00;99586.42;1740693;80;21530;-65
2022/01/27 04:35:41;;;;;;;15.75;7.08;;;;;;;-6.48;100.00;99583.77;1786971;79;21523;-65
2022/01/27 04:38:20;;;;;;;17.55;8.00;;;;;;;-6.47;100.00;99574.02;1773924;79;21577;-65
2022/01/27 04:46:28;;;;;;;19.00;9.05;;;;;;;-6.62;100.00;99563.27;1773106;79;21621;-64
2022/01/27 04:48:53;;;;;;;18.48;7.53;;;;;;;-6.68;100.00;99555.99;1760949;80;21577;-64
2022/01/27 04:51:19;;;;;;;18.55;9.20;;;;;;;-6.73;100.00;99561.78;1760024;79;21082;-65
2022/01/27 04:53:54;;;;;;;19.45;9.30;;;;;;;-6.78;100.00;99555.34;1764525;79;21031;-64
2022/01/27 04:56:15;;;;;;;22.52;10.23;;;;;;;-6.84;100.00;99560.81;1775871;79;21051;-65
2022/01/27 04:58:44;;;;;;;22.62;10.25;;;;;;;-6.88;100.00;99562.62;1781505;79;21585;-64
2022/01/27 05:01:10;;;;;;;23.92;11.18;;;;;;;-6.90;100.00;99564.09;1765834;79;21088;-64
2022/01/27 05:03:43;;;;;;;22.93;10.65;;;;;;;-6.91;100.00;99561.14;1774900;80;21055;-64
2022/01/27 05:06:05;;;;;;;25.68;10.80;;;;;;;-6.92;100.00;99562.12;1794800;79;21075;-64
2022/01/27 05:08:32;;;;;;;28.60;13.60;;;;;;;-6.89;100.00;99563.60;1759561;79;21050;-64
2022/01/27 05:11:09;;;;;;;30.52;13.55;;;;;;;-6.87;100.00;99558.47;1765976;79;21130;-64
2022/01/27 05:13:30;;;;;;;24.67;11.68;;;;;;;-6.86;100.00;99557.48;1781095;80;21078;-64
2022/01/27 05:15:55;;;;;;;27.35;12.93;;;;;;;-6.83;100.00;99551.86;1763567;79;21083;-64
2022/01/27 05:18:22;;;;;;;24.57;11.48;;;;;;;-6.85;100.00;99554.34;1780311;80;21082;-65
2022/01/27 05:20:48;;;;;;;22.67;10.48;;;;;;;-6.83;100.00;99566.41;1758214;80;21059;-64
2022/01/27 05:23:15;;;;;;;21.60;10.50;;;;;;;-6.77;100.00;99573.72;1776560;80;21109;-65
2022/01/27 05:25:41;;;;;;;24.07;11.28;;;;;;;-6.73;100.00;99563.09;1764366;80;21087;-65
2022/01/27 05:28:08;;;;;;;;;;;;;;;-6.66;100.00;99573.87;1777905;80;21049;-65
2022/01/27 05:30:34;;;;;;;26.73;10.40;;;;;;;-6.63;100.00;99571.73;1763244;79;20115;-65
2022/01/27 05:33:01;;;;;;;24.10;12.20;;;;;;;-6.61;100.00;99571.05;1759361;79;21042;-65
2022/01/27 05:35:28;;;;;;;27.67;12.60;;;;;;;-6.56;100.00;99570.56;1735837;82;21151;-65
2022/01/27 05:37:54;;;;;;;;;;;;;;;-6.53;100.00;99572.04;1735419;82;21510;-65
2022/01/27 05:40:21;;;;;;;26.60;13.00;;;;;;;-6.52;100.00;99571.05;1728204;82;20113;-65
2022/01/27 05:42:47;;;;;;;28.85;13.10;;;;;;;-6.55;100.00;99571.70;1747122;80;21035;-65
2022/01/27 05:45:14;;;;;;;28.02;11.95;;;;;;;-6.49;100.00;99570.72;1745679;82;21060;-65
2022/01/27 05:47:41;;;;;;;30.25;12.90;;;;;;;-6.42;100.00;99570.38;1739137;82;21111;-64
2022/01/27 05:50:09;;;;;;;30.30;14.38;;;;;;;-6.34;100.00;99573.83;1730426;80;21001;-65
2022/01/27 05:52:35;;;;;;;28.57;14.05;;;;;;;-6.28;100.00;99570.53;1705614;80;21084;-64
2022/01/27 05:55:01;;;;;;;23.95;11.60;;;;;;;-6.26;100.00;99565.87;1718100;82;21087;-65
2022/01/27 05:57:29;;;;;;;27.67;13.75;;;;;;;-6.21;100.00;99560.91;1718758;82;21076;-66
2022/01/27 05:59:55;;;;;;;23.75;11.48;;;;;;;-6.16;100.00;99558.56;1737410;82;21002;-66
2022/01/27 06:02:22;;;;;;;26.12;12.82;;;;;;;-6.09;100.00;99560.86;1735715;82;21061;-66
2022/01/27 06:04:48;;;;;;;22.67;11.10;;;;;;;-6.01;100.00;99557.37;1722922;83;21006;-66
2022/01/27 06:07:15;;;;;;;22.13;11.57;;;;;;;-5.93;100.00;99550.72;1730965;82;21065;-66
2022/01/27 06:09:41;;;;;;;22.60;11.05;;;;;;;-5.84;100.00;99552.80;1733404;82;21034;-66
2022/01/27 06:12:09;;;;;;;27.25;12.78;;;;;;;-5.78;100.00;99551.64;1747201;82;20994;-66
2022/01/27 06:14:36;;;;;;;29.25;14.73;;;;;;;-5.71;100.00;99550.45;1723177;82;20997;-66
2022/01/27 06:17:03;;;;;;;28.77;12.45;;;;;;;-5.64;100.00;99540.80;1740919;82;21398;-66
2022/01/27 06:19:30;;;;;;;22.98;12.18;;;;;;;-5.60;100.00;99552.72;1730975;82;21659;-66
2022/01/27 06:21:58;;;;;;;27.02;11.88;;;;;;;-5.54;100.00;99551.52;1726584;82;21366;-66
2022/01/27 06:24:24;;;;;;;25.80;12.28;;;;;;;-5.49;100.00;99544.34;1741874;82;21062;-65
2022/01/27 06:26:52;;;;;;;22.70;11.65;;;;;;;-5.45;100.00;99543.00;1739787;82;21034;-67
2022/01/27 06:29:18;;;;;;;26.07;11.93;;;;;;;-5.44;100.00;99537.20;1726105;82;21068;-66
2022/01/27 06:31:46;;;;;;;;;;;;;;;-5.38;100.00;99535.17;1733501;82;21564;-66
2022/01/27 06:34:13;;;;;;;21.25;11.48;;;;;;;-5.35;100.00;99538.83;1727122;82;20134;-66
2022/01/27 06:36:40;;;;;;;23.18;11.10;;;;;;;-5.33;100.00;99535.48;1730752;82;21017;-66
2022/01/27 06:39:07;;;;;;;19.57;10.90;;;;;;;-5.28;100.00;99531.29;1717419;83;21115;-66
2022/01/27 06:41:33;;;;;;;20.68;12.13;;;;;;;-5.26;100.00;99529.80;1742665;82;20998;-65
2022/01/27 06:44:01;;;;;;;22.00;12.00;;;;;;;-5.21;100.00;99529.59;1737712;82;21013;-66
2022/01/27 06:46:28;;;;;;;19.67;10.93;;;;;;;-5.19;100.00;99523.62;1722814;82;21557;-66
2022/01/27 06:48:55;;;;;;;19.07;10.32;;;;;;;-5.18;100.00;99519.97;1745084;82;21428;-66
2022/01/27 06:51:23;;;;;;;;;;;;;;;-5.16;100.00;99521.11;1713355;82;21029;-66
2022/01/27 06:53:49;;;;;;;;;;;;;;;-5.20;100.00;99518.47;1730260;82;20111;-66
2022/01/27 06:56:15;;;;;;;21.45;11.22;;;;;;;-5.26;100.00;99521.34;1730656;82;20140;-66
2022/01/27 06:58:42;;;;;;;22.60;11.40;;;;;;;-5.29;100.00;99518.22;1734202;82;21018;-66
2022/01/27 07:01:08;;;;;;;21.77;11.88;;;;;;;-5.25;100.00;99512.39;1717616;82;21034;-66
2022/01/27 07:03:36;;;;;;;19.52;11.25;;;;;;;-5.21;100.00;99518.97;1721357;82;21053;-66
2022/01/27 07:06:03;;;;;;;20.55;11.63;;;;;;;-5.21;100.00;99511.54;1730620;82;21022;-67
2022/01/27 07:08:29;;;;;;;;;;;;;;;-5.19;100.00;99513.50;1734351;82;20987;-66
2022/01/27 07:10:55;;;;;;;23.00;11.78;;;;;;;-5.13;100.00;99507.48;1731424;82;20117;-66
2022/01/27 07:13:23;;;;;;;22.32;11.70;;;;;;;-5.08;100.00;99507.29;1731867;82;21014;-67
2022/01/27 07:15:50;;;;;;;22.95;12.40;;;;;;;-5.03;100.00;99502.25;1718388;82;21457;-67
2022/01/27 07:18:17;;;;;;;25.50;13.32;;;;;;;-4.95;100.00;99492.08;1738283;82;21480;-66
2022/01/27 07:20:45;;;;;;;26.05;13.35;;;;;;;-4.89;100.00;99494.54;1694705;82;21061;-66
2022/01/27 07:23:13;;;;;;;24.12;13.72;;;;;;;-4.87;100.00;99499.16;1737031;82;20998;-64
2022/01/27 07:25:39;;;;;;;25.00;13.88;;;;;;;-4.88;100.00;99490.36;1721891;82;21073;-64
2022/01/27 07:28:05;;;;;;;23.75;13.40;;;;;;;-4.86;100.00;99489.70;1723361;82;21074;-64
2022/01/27 07:30:32;;;;;;;26.33;13.95;;;;;;;-4.79;100.00;99489.30;1728189;82;21047;-64
2022/01/27 07:32:59;;;;;;;25.68;14.58;;;;;;;-4.72;100.00;99490.23;1741110;82;21006;-64
2022/01/27 07:35:26;;;;;;;29.15;15.45;;;;;;;-4.63;100.00;99485.66;1732096;82;21073;-64
2022/01/27 07:37:53;;;;;;;27.05;14.75;;;;;;;-4.51;100.00;99480.23;1718228;82;21340;-64
2022/01/27 07:40:19;;;;;;;28.52;15.55;;;;;;;-4.40;100.00;99481.62;1719378;82;21085;-64
2022/01/27 07:42:47;;;;;;;;;;;;;;;-4.33;100.00;99487.86;1747104;82;20935;-65
2022/01/27 07:45:13;;;;;;;33.10;16.25;;;;;;;-4.22;100.00;99486.08;1728221;82;20105;-64
2022/01/27 07:47:40;;;;;;;;;;;;;;;-4.15;100.00;99488.32;1742315;82;21478;-64
2022/01/27 07:50:07;;;;;;;28.67;14.30;;;;;;;-4.10;100.00;99486.75;1722391;82;20122;-64
2022/01/27 07:52:34;;;;;;;27.40;15.32;;;;;;;-4.09;100.00;99483.09;1729835;82;20951;-64
2022/01/27 07:55:00;;;;;;;28.25;14.43;;;;;;;-3.98;100.00;99480.47;1745991;82;21082;-65
2022/01/27 07:57:27;;;;;;;21.40;12.53;;;;;;;-3.81;100.00;99485.06;1727647;82;21053;-65
2022/01/27 07:59:53;;;;;;;22.70;13.22;;;;;;;-3.71;100.00;99480.28;1734913;82;21475;-64
2022/01/27 08:02:19;;;;;;;;;;;;;;;-3.62;100.00;99475.19;1734446;82;21073;-64
2022/01/27 08:04:46;;;;;;;23.57;12.40;;;;;;;-3.53;100.00;99470.05;1740825;82;20119;-65
2022/01/27 08:07:13;;;;;;;22.07;12.53;;;;;;;-3.45;100.00;99467.79;1721292;82;21101;-64
2022/01/27 08:09:41;;;;;;;19.17;11.53;;;;;;;-3.37;100.00;99471.17;1728324;82;21054;-64
2022/01/27 08:12:09;;;;;;;18.17;10.28;;;;;;;-3.30;100.00;99464.08;1706648;83;21084;-64
2022/01/27 08:14:37;;;;;;;21.50;11.60;;;;;;;-3.22;100.00;99470.58;1702492;82;21132;-64
2022/01/27 08:17:03;;;;;;;20.37;11.75;;;;;;;-3.18;100.00;99473.19;1736472;82;21050;-62
2022/01/27 08:19:30;;;;;;;21.27;11.60;;;;;;;-3.15;100.00;99470.14;1710285;83;20986;-61
2022/01/27 08:21:57;;;;;;;20.92;12.50;;;;;;;-3.13;100.00;99466.80;1733939;82;21070;-61
2022/01/27 08:24:23;;;;;;;22.02;12.20;;;;;;;-3.13;100.00;99465.97;1736854;82;21028;-61
2022/01/27 08:26:53;;;;;;;;;;;;;;;-3.13;100.00;99455.32;1719453;82;21070;-61
2022/01/27 08:29:22;;;;;;;20.97;12.43;;;;;;;-3.06;100.00;99457.53;1729765;82;20094;-62
2022/01/27 08:34:34;;;;;;;19.62;11.00;;;;;;;-2.96;100.00;99455.37;1733658;81;21053;-62
2022/01/27 08:37:02;;;;;;;22.07;12.68;;;;;;;-2.91;100.00;99447.64;1724555;82;21066;-63
2022/01/27 08:39:29;;;;;;;26.15;13.70;;;;;;;-2.84;100.00;99453.84;1720843;82;20977;-62
2022/01/27 08:41:56;;;;;;;23.42;13.40;;;;;;;-2.73;100.00;99445.30;1728442;82;21078;-63
2022/01/27 08:44:22;;;;;;;22.62;13.65;;;;;;;-2.62;100.00;99443.94;1719860;82;21539;-62
2022/01/27 08:46:49;;;;;;;20.50;12.80;;;;;;;-2.55;100.00;99443.52;1713911;82;21078;-62
2022/01/27 08:49:18;;;;;;;;;;;;;;;-2.49;100.00;99442.72;1727794;82;21501;-62
2022/01/27 08:51:44;;;;;;;23.85;15.32;;;;;;;-2.45;100.00;99433.32;1726910;82;20140;-63
2022/01/27 08:54:10;;;;;;;23.00;13.88;;;;;;;-2.41;100.00;99439.91;1722583;83;20979;-63
2022/01/27 08:56:37;;;;;;;23.00;14.05;;;;;;;-2.35;100.00;99437.78;1720328;83;21023;-63
2022/01/27 08:59:03;;;;;;;25.10;15.75;;;;;;;-2.26;100.00;99433.10;1709857;83;20994;-63
2022/01/27 09:01:30;;;;;;;25.37;14.70;;;;;;;-2.19;100.00;99431.29;1722822;83;21046;-63
2022/01/27 09:03:57;;;;;;;25.77;15.53;;;;;;;-2.13;100.00;99430.02;1717099;83;21008;-63
2022/01/27 09:06:23;;;;;;;23.15;14.10;;;;;;;-2.02;100.00;99428.63;1710292;83;21471;-63
2022/01/27 09:08:50;;;;;;;20.97;13.55;;;;;;;-1.95;100.00;99432.16;1708375;83;21046;-63
2022/01/27 09:11:19;;;;;;;23.92;14.30;;;;;;;-1.89;100.00;99431.86;1713189;83;21157;-63
2022/01/27 09:29:48;;;;;;;22.52;13.95;;;;;;;-1.79;100.00;99418.95;1715660;83;21062;-63
2022/01/27 09:32:15;;;;;;;;;;;;;;;-1.69;100.00;99411.39;1703188;83;21090;-63
2022/01/27 09:34:43;;;;;;;24.85;15.45;;;;;;;-1.70;100.00;99407.10;1697953;83;20123;-63
2022/01/27 09:37:10;;;;;;;24.00;15.28;;;;;;;-1.73;100.00;99410.97;1716945;82;21038;-63
2022/01/27 09:39:37;;;;;;;23.67;15.30;;;;;;;-1.67;100.00;99410.19;1698166;83;21065;-64
2022/01/27 09:42:05;;;;;;;24.92;15.15;;;;;;;-1.55;100.00;99406.40;1712092;82;21108;-64
2022/01/27 09:44:33;;;;;;;24.15;15.72;;;;;;;-1.44;100.00;99407.66;1704530;83;21008;-63
2022/01/27 09:47:04;;;;;;;21.77;14.73;;;;;;;-1.38;100.00;99406.33;1728055;82;21474;-63
2022/01/27 09:49:41;;;;;;;23.90;15.48;;;;;;;-1.31;100.00;99411.16;1703992;82;21547;-63
2022/01/27 09:52:05;;;;;;;26.87;17.05;;;;;;;-1.25;100.00;99403.70;1708285;82;21602;-63
2022/01/27 09:54:32;;;;;;;25.45;16.93;;;;;;;-1.18;100.00;99397.02;1701851;83;21474;-63
2022/01/27 09:56:58;;;;;;;25.50;16.02;;;;;;;-1.15;100.00;99389.93;1720874;82;21503;-63
2022/01/27 09:59:25;;;;;;;24.43;16.25;;;;;;;-1.09;100.00;99391.77;1680958;84;21454;-63
2022/01/27 10:02:06;;;;;;;28.83;16.97;;;;;;;-1.10;100.00;99390.95;1776362;80;21494;-62
2022/01/27 10:04:47;;;;;;;25.90;16.60;;;;;;;-1.14;100.00;99389.73;1759777;79;21011;-63
2022/01/27 10:07:18;;;;;;;26.90;16.48;;;;;;;-1.20;100.00;99383.03;1736766;82;21122;-63
2022/01/27 10:10:07;;;;;;;23.18;16.02;;;;;;;-1.24;100.00;99386.63;1778866;80;21474;-63
2022/01/27 10:12:40;;;;;;;25.82;16.23;;;;;;;-1.26;100.00;99387.36;1752921;79;21003;-63
2022/01/27 10:15:11;;;;;;;24.98;15.80;;;;;;;-1.29;100.00;99382.94;1758406;79;20960;-63
2022/01/27 10:17:40;;;;;;;26.33;15.45;;;;;;;-1.29;100.00;99384.27;1773728;79;21015;-63
2022/01/27 10:20:18;;;;;;;25.92;16.45;;;;;;;-1.22;100.00;99376.58;1745133;81;20996;-63
2022/01/27 10:23:15;;;;;;;25.02;16.95;;;;;;;-1.17;100.00;99378.64;1761117;80;21058;-63
2022/01/27 10:25:46;;;;;;;26.75;16.52;;;;;;;-1.19;100.00;99375.34;1757283;79;21043;-63
2022/01/27 10:28:40;;;;;;;25.08;17.40;;;;;;;-1.22;100.00;99374.41;1714930;82;21048;-63
2022/01/27 10:31:09;;;;;;;;;;;;;;;-1.15;100.00;99369.39;1757096;79;21472;-63
2022/01/27 10:33:53;;;;;;;25.80;16.07;;;;;;;-1.06;100.00;99372.15;1767532;80;20123;-63
2022/01/27 10:36:31;;;;;;;26.12;16.35;;;;;;;-1.05;100.00;99366.30;1770610;79;21059;-63
2022/01/27 10:39:08;;;;;;;30.27;18.75;;;;;;;-1.03;100.00;99359.71;1740015;82;21014;-63
2022/01/27 10:41:38;;;;;;;30.57;18.70;;;;;;;-1.03;100.00;99355.70;1741735;82;21581;-63
2022/01/27 10:44:15;;;;;;;35.17;21.52;;;;;;;-0.98;100.00;99353.75;1745353;82;21703;-62
2022/01/27 10:47:12;;;;;;;29.23;18.20;;;;;;;-0.92;100.00;99354.80;1716601;82;21036;-63
2022/01/27 10:49:41;;;;;;;29.85;18.80;;;;;;;-0.90;100.00;99347.38;1752093;82;20996;-63
2022/01/27 10:52:12;;;;;;;30.77;18.80;;;;;;;-0.86;100.00;99348.62;1744471;82;21050;-63
2022/01/27 10:54:41;;;;;;;29.07;18.25;;;;;;;-0.83;100.00;99334.83;1705882;83;21003;-63
2022/01/27 10:57:11;;;;;;;27.52;17.52;;;;;;;-0.76;100.00;99340.48;1707442;84;21046;-63
2022/01/27 10:59:38;;;;;;;32.08;20.12;;;;;;;-0.71;100.00;99335.31;1720750;82;20979;-63
2022/01/27 11:02:07;;;;;;;27.85;18.80;;;;;;;-0.59;100.00;99336.83;1729428;82;21494;-63
2022/01/27 11:04:38;;;;;;;34.75;20.80;;;;;;;-0.53;100.00;99338.66;1725333;82;20999;-63
2022/01/27 11:07:11;;;;;;;27.52;19.57;;;;;;;-0.48;100.00;99334.02;1727234;82;21031;-63
2022/01/27 11:09:40;;;;;;;33.33;22.13;;;;;;;-0.40;100.00;99332.47;1736988;82;20995;-63
2022/01/27 11:12:11;;;;;;;29.25;18.80;;;;;;;-0.35;100.00;99332.64;1730019;82;21038;-63
2022/01/27 11:14:35;;;;;;;29.87;19.85;;;;;;;-0.32;100.00;99330.91;1724998;82;21078;-63
2022/01/27 11:17:04;;;;;;;30.68;20.37;;;;;;;-0.35;100.00;99333.46;1722454;83;21047;-63
2022/01/27 11:22:04;;;;;;;29.37;20.52;;;;;;;-0.37;100.00;99330.19;1732124;82;21042;-63
2022/01/27 11:24:36;;;;;;;29.95;18.87;;;;;;;-0.35;100.00;99321.94;1733754;82;21617;-64
2022/01/27 11:27:02;;;;;;;29.60;19.75;;;;;;;-0.34;100.00;99312.89;1747629;82;21094;-64
2022/01/27 11:29:29;;;;;;;27.93;18.67;;;;;;;-0.28;100.00;99319.55;1736842;82;21033;-63
2022/01/27 11:32:35;;;;;;;27.98;18.02;;;;;;;-0.17;100.00;99312.71;1726991;82;21093;-64
2022/01/27 11:35:02;;;;;;;27.50;17.75;;;;;;;-0.16;100.00;99313.02;1728478;82;21035;-64
2022/01/27 11:37:35;;;;;;;27.15;18.67;;;;;;;-0.21;100.00;99310.16;1711384;83;20971;-64
2022/01/27 11:40:10;;;;;;;30.25;19.62;;;;;;;-0.21;100.00;99304.80;1732782;81;21011;-63
2022/01/27 11:42:46;;;;;;;30.00;19.07;;;;;;;-0.21;100.00;99303.47;1753322;81;21486;-62
2022/01/27 11:45:29;;;;;;;28.60;18.90;;;;;;;-0.18;100.00;99296.38;1739224;81;20982;-64
2022/01/27 11:48:06;;;;;;;29.18;19.77;;;;;;;-0.08;100.00;99300.23;1733128;83;21029;-64
2022/01/27 11:50:37;;;;;;;31.85;20.17;;;;;;;-0.04;100.00;99300.63;1740411;81;21062;-64
2022/01/27 11:53:06;;;;;;;35.00;22.62;;;;;;;0.02;100.00;99306.45;1758747;81;20991;-64
2022/01/27 11:55:40;;;;;;;32.03;20.48;;;;;;;0.08;100.00;99297.56;1752182;81;21061;-64
2022/01/27 11:58:19;;;;;;;29.27;20.50;;;;;;;0.11;100.00;99294.45;1751233;81;21081;-64
2022/01/27 12:01:15;;;;;;;32.88;20.75;;;;;;;0.11;100.00;99297.13;1753619;81;21054;-64
2022/01/27 12:04:08;;;;;;;34.27;21.77;;;;;;;0.17;100.00;99288.77;1754808;81;21589;-64
2022/01/27 12:06:51;;;;;;;35.98;23.15;;;;;;;0.24;100.00;99290.38;1729447;81;21022;-64
2022/01/27 12:09:25;;;;;;;33.40;21.23;;;;;;;0.30;100.00;99292.69;1762492;81;21082;-64
2022/01/27 12:12:11;;;;;;;33.75;22.62;;;;;;;0.26;100.00;99294.98;1748382;81;21078;-64
2022/01/27 12:14:46;;;;;;;35.73;23.30;;;;;;;0.18;100.00;99289.08;1752436;81;21070;-64
2022/01/27 12:17:20;;;;;;;36.33;23.87;;;;;;;0.23;100.00;99294.59;1757827;81;21075;-64
2022/01/27 12:20:08;;;;;;;42.75;28.55;;;;;;;0.30;100.00;99290.84;1750662;81;21077;-64
2022/01/27 12:22:50;;;;;;;36.63;24.00;;;;;;;0.31;100.00;99293.00;1733632;81;21190;-64
2022/01/27 12:25:14;;;;;;;37.00;23.47;;;;;;;0.28;100.00;99291.59;1713184;83;21867;-62
2022/01/27 12:27:41;;;;;;;34.53;22.48;;;;;;;0.25;100.00;99285.84;1720149;83;21078;-62